Time;durP1;ratioP1;P1;durP2;ratioP2;P2;SDS_P1;SDS_P2;PMS_P1;PMS_P2;Temp;Humidity;BMP_temperature;BMP_pressure;BME280_temperature;BME280_humidity;BME280_pressure;Samples;Min_cycle;Max_cycle;Signal;HPM_P1;HPM_P2
2023/07/23 00:04:54;;;;;;;;;;;;;;;22.49;43.26;95624.72;10446046;28;1898;-67
2023/07/23 00:09:54;;;;;;;;;;;;;;;22.47;43.23;95625.03;10452605;28;1990;-68
2023/07/23 00:14:55;;;;;;;;;;;;;;;22.49;43.49;95627.38;10457083;28;1905;-68
2023/07/23 00:19:55;;;;;;;;;;;;;;;22.47;43.35;95625.03;10447032;28;1881;-67
2023/07/23 00:24:57;;;;;;;;;;;;;;;22.49;43.62;95622.88;10448812;28;2030;-68
2023/07/23 00:29:57;;;;;;;;;;;;;;;22.47;43.59;95625.03;10448173;28;1889;-68
2023/07/23 00:34:57;;;;;;;;;;;;;;;22.47;43.65;95630.31;10444875;28;2478;-68
2023/07/23 00:39:57;;;;;;;;;;;;;;;22.47;43.78;95618.97;10443063;28;4566;-67
2023/07/23 00:44:58;;;;;;;;;;;;;;;22.44;43.88;95619.53;10449819;28;2085;-66
2023/07/23 00:49:58;;;;;;;;;;;;;;;22.44;44.05;95615.03;10454440;28;2033;-67
2023/07/23 00:54:58;;;;;;;;;;;;;;;22.43;44.26;95620.59;10461524;28;2011;-67
2023/07/23 00:59:58;;;;;;;;;;;;;;;22.41;44.01;95605.06;10454508;28;1943;-67
2023/07/23 01:04:59;;;;;;;;;;;;;;;22.41;44.18;95604.25;10456321;28;1959;-67
2023/07/23 01:09:59;;;;;;;;;;;;;;;22.38;44.62;95597.69;10451445;28;1967;-68
2023/07/23 01:15:03;;;;;;;;;;;;;;;22.41;44.24;95604.25;10450111;28;1938;-68
2023/07/23 01:20:04;;;;;;;;;;;;;;;22.39;44.49;95596.63;10448967;28;1971;-66
2023/07/23 01:25:05;;;;;;;;;;;;;;;22.36;44.29;95591.91;10448619;28;1947;-67
2023/07/23 01:30:10;;;;;;;;;;;;;;;22.36;44.43;95596.44;10449711;28;2355;-67
2023/07/23 01:35:11;;;;;;;;;;;;;;;22.37;44.56;95592.72;10444322;28;2176;-67
2023/07/23 01:40:11;;;;;;;;;;;;;;;22.35;44.49;95586.94;10444676;28;4506;-67
2023/07/23 01:45:12;;;;;;;;;;;;;;;22.34;44.58;95586.13;10456793;28;1998;-67
2023/07/23 01:50:12;;;;;;;;;;;;;;;22.33;44.81;95581.94;10447759;28;1969;-69
2023/07/23 01:55:12;;;;;;;;;;;;;;;22.31;44.94;95583.31;10448956;28;1977;-68
2023/07/23 02:00:13;;;;;;;;;;;;;;;22.30;44.88;95576.44;10452173;28;1967;-68
2023/07/23 02:05:13;;;;;;;;;;;;;;;22.29;44.98;95575.66;10445306;28;2026;-68
2023/07/23 02:10:13;;;;;;;;;;;;;;;22.25;45.01;95579.97;10446577;28;1920;-67
2023/07/23 02:15:14;;;;;;;;;;;;;;;22.29;45.00;95569.59;10444877;28;1946;-67
2023/07/23 02:20:14;;;;;;;;;;;;;;;22.25;44.86;95569.41;10443497;28;1983;-67
2023/07/23 02:25:15;;;;;;;;;;;;;;;22.29;44.62;95564.31;10478332;28;2413;-68
2023/07/23 02:30:15;;;;;;;;;;;;;;;22.24;45.10;95570.47;10447165;28;2070;-69
2023/07/23 02:35:15;;;;;;;;;;;;;;;22.29;45.13;95569.59;10444886;28;1955;-68
2023/07/23 02:40:15;;;;;;;;;;;;;;;22.24;45.06;95574.94;10440825;28;1943;-69
2023/07/23 02:45:16;;;;;;;;;;;;;;;22.24;45.09;95578.38;10449115;28;1967;-67
2023/07/23 02:50:16;;;;;;;;;;;;;;;22.25;44.88;95572.03;10446842;28;2075;-68
2023/07/23 02:55:16;;;;;;;;;;;;;;;22.25;45.17;95576.53;10452602;28;2022;-71
2023/07/23 03:00:18;;;;;;;;;;;;;;;22.28;45.07;95587.28;10451506;28;1953;-75
2023/07/23 03:05:19;;;;;;;;;;;;;;;22.24;44.89;95572.31;10455320;28;1944;-69
2023/07/23 03:10:19;;;;;;;;;;;;;;;22.26;44.99;95578.88;10451572;28;1916;-68
2023/07/23 03:15:19;;;;;;;;;;;;;;;22.22;45.08;95577.88;10449800;28;2088;-67
2023/07/23 03:20:20;;;;;;;;;;;;;;;22.21;45.19;95586.88;10451604;28;2079;-68
2023/07/23 03:25:20;;;;;;;;;;;;;;;22.17;45.33;95580.63;10447352;28;2330;-68
2023/07/23 03:30:20;;;;;;;;;;;;;;;22.19;45.18;95577.69;10458098;28;2099;-68
2023/07/23 03:35:21;;;;;;;;;;;;;;;22.13;45.14;95570.91;10452328;28;2044;-68
2023/07/23 03:40:21;;;;;;;;;;;;;;;22.20;45.19;95581.88;10458911;28;4509;-69
2023/07/23 03:45:21;;;;;;;;;;;;;;;22.20;44.98;95577.38;10453017;28;1956;-68
2023/07/23 03:50:22;;;;;;;;;;;;;;;22.16;44.90;95565.03;10446018;28;1932;-67
2023/07/23 03:55:22;;;;;;;;;;;;;;;22.12;45.28;95566.69;10457233;28;1979;-67
2023/07/23 04:00:22;;;;;;;;;;;;;;;22.10;45.25;95568.84;10462508;28;2011;-67
2023/07/23 04:05:23;;;;;;;;;;;;;;;22.12;44.96;95566.69;10444990;28;1966;-67
2023/07/23 04:10:23;;;;;;;;;;;;;;;22.13;45.20;95570.91;10446985;28;1900;-67
2023/07/23 04:15:23;;;;;;;;;;;;;;;22.06;45.28;95565.19;10451541;28;1909;-66
2023/07/23 04:20:23;;;;;;;;;;;;;;;22.08;44.99;95568.34;10451037;28;2095;-67
2023/07/23 04:25:24;;;;;;;;;;;;;;;22.10;45.23;95572.25;10451938;28;1943;-68
2023/07/23 04:30:27;;;;;;;;;;;;;;;22.11;45.14;95568.56;10445918;28;1948;-68
2023/07/23 04:35:28;;;;;;;;;;;;;;;22.11;45.24;95563.28;10447585;28;2056;-66
2023/07/23 04:40:32;;;;;;;;;;;;;;;22.12;44.99;95562.19;10465609;28;4605;-66
2023/07/23 04:45:33;;;;;;;;;;;;;;;22.10;45.22;95560.91;10450045;28;1857;-67
2023/07/23 04:50:33;;;;;;;;;;;;;;;22.09;45.17;95562.75;10449043;28;1898;-67
2023/07/23 04:55:33;;;;;;;;;;;;;;;22.13;44.98;95566.44;10451461;28;1902;-67
2023/07/23 05:00:33;;;;;;;;;;;;;;;22.13;45.13;95566.44;10450716;28;1874;-67
2023/07/23 05:05:34;;;;;;;;;;;;;;;22.15;45.12;95571.41;10453807;28;2027;-67
2023/07/23 05:10:34;;;;;;;;;;;;;;;22.11;44.92;95570.41;10448040;28;1850;-67
2023/07/23 05:15:35;;;;;;;;;;;;;;;22.14;45.20;95575.09;10449002;28;1910;-68
2023/07/23 05:20:35;;;;;;;;;;;;;;;22.14;44.98;95575.91;10447169;28;1882;-69
2023/07/23 05:25:35;;;;;;;;;;;;;;;22.17;45.11;95582.47;10438016;28;2059;-68
2023/07/23 05:30:36;;;;;;;;;;;;;;;22.16;45.00;95576.41;10449454;28;1869;-68
2023/07/23 05:35:36;;;;;;;;;;;;;;;22.18;45.02;95579.53;10443658;28;1963;-68
2023/07/23 05:40:36;;;;;;;;;;;;;;;22.20;45.20;95592.44;10446441;28;4517;-68
2023/07/23 05:45:36;;;;;;;;;;;;;;;22.19;45.33;95590.88;10446397;28;1862;-68
2023/07/23 05:50:37;;;;;;;;;;;;;;;22.22;45.14;95598.22;10448694;28;1834;-68
2023/07/23 05:55:37;;;;;;;;;;;;;;;22.24;45.16;95596.06;10448716;28;1977;-69
2023/07/23 06:00:37;;;;;;;;;;;;;;;22.26;45.14;95592.06;10444747;28;1914;-65
2023/07/23 06:05:37;;;;;;;;;;;;;;;22.26;45.40;95597.34;10449407;28;1852;-66
2023/07/23 06:10:38;;;;;;;;;;;;;;;22.27;45.14;95598.94;10439482;28;2268;-70
2023/07/23 06:15:38;;;;;;;;;;;;;;;22.25;44.99;95593.16;10442119;28;2001;-69
2023/07/23 06:20:38;;;;;;;;;;;;;;;22.29;45.01;95601.28;10444766;28;1866;-71
2023/07/23 06:25:39;;;;;;;;;;;;;;;22.30;45.12;95593.06;10447122;28;1870;-69
2023/07/23 06:30:39;;;;;;;;;;;;;;;22.32;45.15;95590.91;10448855;28;1889;-71
2023/07/23 06:35:41;;;;;;;;;;;;;;;22.35;45.21;95593.00;10432847;28;1902;-69
2023/07/23 06:40:46;;;;;;;;;;;;;;;22.39;45.25;95601.13;10448493;28;4490;-75
2023/07/23 06:45:47;;;;;;;;;;;;;;;22.35;44.99;95594.84;10448877;28;1873;-70
2023/07/23 06:50:47;;;;;;;;;;;;;;;22.38;44.94;95597.69;10444862;28;1986;-72
2023/07/23 06:56:03;;;;;;;;;;;;;;;22.41;45.00;95594.50;10454811;28;1980;-73
2023/07/23 07:01:04;;;;;;;;;;;;;;;22.44;45.01;95596.53;10443746;28;1854;-74
2023/07/23 07:06:04;;;;;;;;;;;;;;;22.44;45.05;95585.97;10446202;28;1787;-74
2023/07/23 07:11:09;;;;;;;;;;;;;;;22.48;44.48;95594.13;10451379;28;2447;-73
2023/07/23 07:16:10;;;;;;;;;;;;;;;22.50;44.52;95589.34;10476102;28;2017;-72
2023/07/23 07:21:10;;;;;;;;;;;;;;;22.49;44.21;95585.91;10446531;28;1858;-72
2023/07/23 07:26:10;;;;;;;;;;;;;;;22.50;43.70;95589.34;10444904;28;1834;-72
2023/07/23 07:31:12;;;;;;;;;;;;;;;22.51;43.83;95586.41;10452604;28;1885;-72
2023/07/23 07:36:12;;;;;;;;;;;;;;;22.55;43.62;95584.75;10451175;28;4569;-71
2023/07/23 07:41:12;;;;;;;;;;;;;;;22.58;42.89;95586.84;10453716;28;1994;-65
2023/07/23 07:46:12;;;;;;;;;;;;;;;22.59;42.35;95577.03;10450394;28;1846;-68
2023/07/23 07:51:13;;;;;;;;;;;;;;;22.61;43.22;95575.69;10446725;28;1959;-70
2023/07/23 07:56:15;;;;;;;;;;;;;;;22.65;43.29;95568.75;10446437;28;1983;-69
2023/07/23 08:01:15;;;;;;;;;;;;;;;22.68;43.68;95567.38;10446712;28;1898;-70
2023/07/23 08:06:15;;;;;;;;;;;;;;;22.71;43.59;95561.50;10449270;28;2280;-70
2023/07/23 08:11:15;;;;;;;;;;;;;;;22.73;43.63;95561.25;10451691;28;1829;-70
2023/07/23 08:16:16;;;;;;;;;;;;;;;22.76;43.99;95563.28;10446907;28;1955;-69
2023/07/23 08:21:17;;;;;;;;;;;;;;;22.78;43.57;95559.28;10451004;28;1878;-70
2023/07/23 08:26:18;;;;;;;;;;;;;;;22.79;43.74;95550.28;10448652;28;1908;-69
2023/07/23 08:31:19;;;;;;;;;;;;;;;22.81;43.88;95553.44;10440524;28;2012;-69
2023/07/23 08:36:19;;;;;;;;;;;;;;;22.83;43.90;95553.13;10450117;28;4560;-69
2023/07/23 08:41:32;;;;;;;;;;;;;;;22.84;43.82;95544.91;10453879;28;3855;-71
2023/07/23 08:46:32;;;;;;;;;;;;;;;22.86;44.12;95550.66;10472184;28;1908;-69
2023/07/23 08:51:33;;;;;;;;;;;;;;;22.88;44.05;95537.16;10445927;28;1857;-69
2023/07/23 08:56:34;;;;;;;;;;;;;;;22.89;43.84;95546.66;10442298;28;1963;-69
2023/07/23 09:01:35;;;;;;;;;;;;;;;22.89;43.96;95541.38;10463446;28;1890;-68
2023/07/23 09:06:35;;;;;;;;;;;;;;;22.90;44.12;95540.28;10443156;28;1885;-69
2023/07/23 09:11:35;;;;;;;;;;;;;;;22.91;43.92;95540.03;10443602;28;1978;-68
2023/07/23 09:16:39;;;;;;;;;;;;;;;22.93;44.11;95535.22;10472224;28;1984;-68
2023/07/23 09:21:40;;;;;;;;;;;;;;;22.94;44.19;95528.06;10449352;28;1896;-69
2023/07/23 09:26:41;;;;;;;;;;;;;;;22.95;44.09;95525.13;10442798;28;1821;-69
2023/07/23 09:31:42;;;;;;;;;;;;;;;22.97;44.08;95522.19;10451214;28;1876;-68
2023/07/23 09:36:42;;;;;;;;;;;;;;;22.98;44.07;95521.91;10442331;28;4576;-69
2023/07/23 09:41:42;;;;;;;;;;;;;;;22.99;44.25;95520.03;10448326;28;1918;-69
2023/07/23 09:46:46;;;;;;;;;;;;;;;23.00;44.00;95521.63;10449538;28;1934;-68
2023/07/23 09:51:50;;;;;;;;;;;;;;;23.01;43.99;95509.94;10445193;28;1938;-69
2023/07/23 09:56:51;;;;;;;;;;;;;;;23.03;44.06;95521.81;10445242;28;2434;-71
2023/07/23 10:01:51;;;;;;;;;;;;;;;23.04;44.13;95512.03;10448799;28;2013;-68
2023/07/23 10:06:51;;;;;;;;;;;;;;;23.04;43.97;95518.06;10462553;28;1990;-69
2023/07/23 10:11:52;;;;;;;;;;;;;;;23.06;44.04;95515.16;10441477;28;1859;-69
2023/07/23 10:16:52;;;;;;;;;;;;;;;23.06;43.81;95513.28;10440580;28;1938;-67
2023/07/23 10:21:52;;;;;;;;;;;;;;;23.08;43.79;95511.13;10439886;28;1893;-67
2023/07/23 10:26:54;;;;;;;;;;;;;;;23.10;43.79;95505.56;10443083;28;1871;-67
2023/07/23 10:31:57;;;;;;;;;;;;;;;23.10;43.97;95502.91;10440697;28;1564;-67
2023/07/23 10:37:13;;;;;;;;;;;;;;;23.11;44.15;95491.25;10470973;28;4509;-68
2023/07/23 10:42:35;;;;;;;;;;;;;;;23.12;43.99;95483.00;10439257;28;1913;-67
2023/07/23 10:47:35;;;;;;;;;;;;;;;23.15;44.08;95513.38;10445713;28;1879;-69
2023/07/23 10:52:35;;;;;;;;;;;;;;;23.16;44.13;95491.16;10472614;28;1916;-69
2023/07/23 10:57:39;;;;;;;;;;;;;;;23.16;43.97;95480.56;10444818;28;1973;-70
2023/07/23 11:02:44;;;;;;;;;;;;;;;23.17;44.08;95468.91;10443778;28;2103;-70
2023/07/23 11:07:47;;;;;;;;;;;;;;;23.17;44.09;95467.06;10441615;28;1828;-69
2023/07/23 11:12:47;;;;;;;;;;;;;;;23.19;43.89;95461.47;10442004;28;1943;-69
2023/07/23 11:17:48;;;;;;;;;;;;;;;23.19;43.90;95464.91;10451007;28;1910;-69
2023/07/23 11:22:48;;;;;;;;;;;;;;;23.19;43.86;95459.59;10449416;28;2026;-69
2023/07/23 11:27:48;;;;;;;;;;;;;;;23.21;44.06;95456.66;10447585;28;2085;-70
2023/07/23 11:32:49;;;;;;;;;;;;;;;23.22;43.93;95450.31;10453135;28;1996;-71
2023/07/23 11:37:49;;;;;;;;;;;;;;;23.23;44.10;95451.84;10452606;28;4513;-72
2023/07/23 11:42:51;;;;;;;;;;;;;;;23.23;43.90;95436.78;10447539;28;1870;-71
2023/07/23 11:47:52;;;;;;;;;;;;;;;23.24;44.20;95434.91;10452965;28;1950;-71
2023/07/23 11:52:53;;;;;;;;;;;;;;;23.24;44.10;95437.56;10445415;28;2084;-71
2023/07/23 11:57:56;;;;;;;;;;;;;;;23.25;43.82;95431.97;10448702;28;2096;-71
2023/07/23 12:02:57;;;;;;;;;;;;;;;23.26;43.73;95430.91;10481349;28;1873;-68
2023/07/23 12:07:57;;;;;;;;;;;;;;;23.27;43.64;95413.94;10451217;28;2151;-69
2023/07/23 12:12:59;;;;;;;;;;;;;;;23.27;43.60;95408.66;10450387;28;1884;-69
2023/07/23 12:17:59;;;;;;;;;;;;;;;23.29;43.77;95418.94;10449777;28;1945;-68
2023/07/23 12:23:00;;;;;;;;;;;;;;;23.30;44.07;95410.72;10443003;28;1878;-68
2023/07/23 12:28:00;;;;;;;;;;;;;;;23.30;43.79;95402.78;10447722;28;1869;-67
2023/07/23 12:33:00;;;;;;;;;;;;;;;23.32;43.82;95399.84;10452570;28;1913;-68
2023/07/23 12:38:01;;;;;;;;;;;;;;;23.33;43.83;95401.41;10446581;28;4521;-68
2023/07/23 12:43:01;;;;;;;;;;;;;;;23.33;43.81;95388.97;10440130;28;1921;-68
2023/07/23 12:48:01;;;;;;;;;;;;;;;23.33;44.09;95388.97;10447117;28;2394;-68
2023/07/23 12:53:01;;;;;;;;;;;;;;;23.35;43.79;95392.09;10447152;28;1948;-70
2023/07/23 12:58:02;;;;;;;;;;;;;;;23.36;43.80;95387.59;10448151;28;1906;-69
2023/07/23 13:03:03;;;;;;;;;;;;;;;23.38;43.82;95380.16;10443183;28;1893;-69
2023/07/23 13:08:03;;;;;;;;;;;;;;;23.40;43.80;95380.63;10444917;28;1901;-75
2023/07/23 13:13:04;;;;;;;;;;;;;;;23.43;44.10;95383.44;10443757;28;1865;-77
2023/07/23 13:18:04;;;;;;;;;;;;;;;23.42;43.66;95384.53;10442127;28;2005;-76
2023/07/23 13:23:05;;;;;;;;;;;;;;;23.46;43.87;95390.00;10444139;28;1846;-75
2023/07/23 13:28:05;;;;;;;;;;;;;;;23.44;43.77;95384.22;10444239;28;1822;-78
2023/07/23 13:33:06;;;;;;;;;;;;;;;23.44;43.94;95382.38;10447150;28;1890;-75
2023/07/23 13:38:06;;;;;;;;;;;;;;;23.45;43.92;95381.28;10455198;28;1977;-79
2023/07/23 13:43:06;;;;;;;;;;;;;;;23.47;43.86;95381.00;10446044;28;2279;-77
2023/07/23 13:48:07;;;;;;;;;;;;;;;23.49;44.17;95370.91;10446664;28;1950;-73
2023/07/23 13:53:08;;;;;;;;;;;;;;;23.50;44.23;95377.75;10445324;28;1877;-73
2023/07/23 13:58:08;;;;;;;;;;;;;;;23.49;44.00;95376.19;10459917;28;1918;-74
2023/07/23 14:03:09;;;;;;;;;;;;;;;23.49;43.93;95381.47;10471071;28;1933;-73
2023/07/23 14:08:09;;;;;;;;;;;;;;;23.50;44.08;95372.44;10443168;28;2042;-74
2023/07/23 14:13:09;;;;;;;;;;;;;;;23.52;44.21;95382.72;10437337;28;1962;-74
2023/07/23 14:18:10;;;;;;;;;;;;;;;23.52;44.04;95374.78;10441875;28;1967;-73
2023/07/23 14:23:10;;;;;;;;;;;;;;;23.52;43.91;95380.06;10445649;28;1953;-74
2023/07/23 14:28:10;;;;;;;;;;;;;;;23.53;43.81;95373.72;10438486;28;1901;-74
2023/07/23 14:33:10;;;;;;;;;;;;;;;23.53;43.75;95371.88;10441301;28;1874;-74
2023/07/23 14:38:11;;;;;;;;;;;;;;;23.54;43.78;95378.69;10447486;28;4664;-75
2023/07/23 14:43:11;;;;;;;;;;;;;;;23.54;43.60;95370.75;10442935;28;1975;-74
2023/07/23 14:48:11;;;;;;;;;;;;;;;23.55;43.65;95372.34;10458276;28;1907;-75
2023/07/23 14:53:19;;;;;;;;;;;;;;;23.55;43.59;95377.63;10456306;28;1819;-73
2023/07/23 14:58:19;;;;;;;;;;;;;;;23.55;43.48;95382.94;10459565;28;1910;-74
2023/07/23 15:03:20;;;;;;;;;;;;;;;23.56;43.80;95387.13;10452279;28;1878;-74
2023/07/23 15:08:20;;;;;;;;;;;;;;;23.56;43.84;95381.81;10454957;28;1708;-73
2023/07/23 15:13:21;;;;;;;;;;;;;;;23.56;43.60;95378.41;10486613;28;1956;-74
2023/07/23 15:18:21;;;;;;;;;;;;;;;23.57;43.65;95382.63;10451799;28;1906;-74
2023/07/23 15:23:21;;;;;;;;;;;;;;;23.57;43.60;95378.13;10459773;28;1809;-76
2023/07/23 15:28:22;;;;;;;;;;;;;;;23.60;43.41;95382.78;10459466;28;1893;-78
2023/07/23 15:33:22;;;;;;;;;;;;;;;23.59;43.71;95375.94;10449304;28;2407;-74
2023/07/23 15:38:23;;;;;;;;;;;;;;;23.59;43.63;95380.44;10444541;28;1966;-74
2023/07/23 15:43:23;;;;;;;;;;;;;;;23.59;43.65;95381.25;10447813;28;1908;-74
2023/07/23 15:48:23;;;;;;;;;;;;;;;23.60;43.56;95382.00;10448054;28;1845;-73
2023/07/23 15:53:24;;;;;;;;;;;;;;;23.60;43.54;95374.84;10445507;28;1915;-74
2023/07/23 15:58:24;;;;;;;;;;;;;;;23.60;43.36;95388.09;10446093;28;1905;-74
2023/07/23 16:03:24;;;;;;;;;;;;;;;23.60;43.43;95376.72;10455341;28;1801;-74
2023/07/23 16:08:24;;;;;;;;;;;;;;;23.61;43.34;95362.41;10448944;28;2131;-70
2023/07/23 16:13:25;;;;;;;;;;;;;;;23.62;43.08;95372.69;10447951;28;1830;-70
2023/07/23 16:18:25;;;;;;;;;;;;;;;23.61;43.37;95371.13;10450965;28;1981;-72
2023/07/23 16:23:25;;;;;;;;;;;;;;;23.62;43.27;95367.41;10457876;28;1830;-71
2023/07/23 16:28:26;;;;;;;;;;;;;;;23.62;43.36;95377.22;10457983;28;1964;-71
2023/07/23 16:33:27;;;;;;;;;;;;;;;23.63;43.41;95361.03;10447452;28;2424;-71
2023/07/23 16:38:27;;;;;;;;;;;;;;;23.64;43.41;95362.59;10447372;28;4477;-71
2023/07/23 16:43:27;;;;;;;;;;;;;;;23.62;43.36;95356.81;10451906;28;2085;-71
2023/07/23 16:48:28;;;;;;;;;;;;;;;23.63;43.08;95362.88;10456568;28;1894;-71
2023/07/23 16:53:28;;;;;;;;;;;;;;;23.64;43.20;95362.59;10453357;28;2137;-71
2023/07/23 16:58:29;;;;;;;;;;;;;;;23.64;43.42;95357.28;10454777;28;1906;-71
2023/07/23 17:03:29;;;;;;;;;;;;;;;23.64;43.34;95352.00;10444999;28;1846;-71
2023/07/23 17:08:29;;;;;;;;;;;;;;;23.64;43.40;95357.28;10455793;28;1906;-70
2023/07/23 17:13:30;;;;;;;;;;;;;;;23.66;43.20;95368.34;10485063;28;1790;-71
2023/07/23 17:18:30;;;;;;;;;;;;;;;23.65;43.28;95358.88;10447337;28;2004;-70
2023/07/23 17:23:30;;;;;;;;;;;;;;;23.67;43.37;95362.00;10457894;28;1889;-70
2023/07/23 17:28:31;;;;;;;;;;;;;;;23.67;43.33;95354.06;10447123;28;2229;-70
2023/07/23 17:33:31;;;;;;;;;;;;;;;23.67;43.18;95354.06;10448720;28;1821;-70
2023/07/23 17:38:31;;;;;;;;;;;;;;;23.68;43.29;95354.84;10452032;28;4466;-71
2023/07/23 17:43:32;;;;;;;;;;;;;;;23.68;43.22;95358.25;10444151;28;1786;-71
2023/07/23 17:48:33;;;;;;;;;;;;;;;23.69;43.43;95359.81;10446341;28;1993;-72
2023/07/23 17:53:37;;;;;;;;;;;;;;;23.69;43.17;95354.53;10453148;28;1791;-71
2023/07/23 17:58:37;;;;;;;;;;;;;;;23.68;43.22;95347.66;10453224;28;1917;-70
2023/07/23 18:03:37;;;;;;;;;;;;;;;23.69;43.30;95354.53;10451862;28;1803;-71
2023/07/23 18:08:37;;;;;;;;;;;;;;;23.70;43.29;95352.69;10449274;28;1874;-71
2023/07/23 18:13:38;;;;;;;;;;;;;;;23.71;43.30;95347.06;10446432;28;2202;-71
2023/07/23 18:18:38;;;;;;;;;;;;;;;23.71;43.30;95341.00;10444451;28;2030;-70
2023/07/23 18:23:38;;;;;;;;;;;;;;;23.71;43.32;95347.06;10461334;28;2817;-71
2023/07/23 18:28:52;;;;;;;;;;;;;;;;;;;;;
2023/07/23 18:34:17;;;;;;;;;;;;;;;23.73;43.23;95339.59;10451104;28;1822;-71
2023/07/23 18:39:17;;;;;;;;;;;;;;;23.74;43.54;95350.97;10452193;28;4525;-71
2023/07/23 18:44:18;;;;;;;;;;;;;;;23.74;43.54;95346.44;10449626;28;1952;-72
2023/07/23 18:49:18;;;;;;;;;;;;;;;23.74;43.57;95343.81;10448500;28;2049;-70
2023/07/23 18:54:18;;;;;;;;;;;;;;;23.75;43.69;95355.97;10450059;28;1866;-77
2023/07/23 18:59:19;;;;;;;;;;;;;;;23.90;43.53;95349.50;10454691;28;1965;-77
2023/07/23 19:04:19;;;;;;;;;;;;;;;23.96;45.60;95348.28;10456429;28;1885;-70
2023/07/23 19:09:19;;;;;;;;;;;;;;;23.99;47.30;95355.59;10455585;28;1685;-69
2023/07/23 19:14:19;;;;;;;;;;;;;;;24.01;47.99;95351.56;10448207;28;1890;-69
2023/07/23 19:19:20;;;;;;;;;;;;;;;24.04;48.61;95353.66;10445755;28;2308;-69
2023/07/23 19:24:20;;;;;;;;;;;;;;;24.07;49.32;95349.63;10467585;28;1830;-72
2023/07/23 19:29:20;;;;;;;;;;;;;;;24.09;49.53;95342.16;10448917;28;1969;-72
2023/07/23 19:34:21;;;;;;;;;;;;;;;24.08;49.78;95340.59;10462469;28;1871;-70
2023/07/23 19:39:21;;;;;;;;;;;;;;;24.08;50.30;95346.66;10452585;28;4616;-68
2023/07/23 19:44:21;;;;;;;;;;;;;;;24.09;50.63;95342.91;10452869;28;2050;-70
2023/07/23 19:49:22;;;;;;;;;;;;;;;24.09;50.66;95342.91;10450131;28;1847;-70
2023/07/23 19:54:22;;;;;;;;;;;;;;;24.09;50.68;95334.97;10450411;28;1854;-70
2023/07/23 19:59:24;;;;;;;;;;;;;;;24.10;50.74;95339.19;10452754;28;1918;-67
2023/07/23 20:04:25;;;;;;;;;;;;;;;23.94;48.77;95335.38;10448131;28;1971;-72
2023/07/23 20:09:25;;;;;;;;;;;;;;;23.85;47.44;95328.44;10452022;28;2060;-71
2023/07/23 20:14:25;;;;;;;;;;;;;;;23.72;47.40;95324.81;10458573;28;1825;-71
2023/07/23 20:19:26;;;;;;;;;;;;;;;23.67;47.30;95338.19;10448405;28;2313;-71
2023/07/23 20:24:26;;;;;;;;;;;;;;;23.60;47.66;95332.50;10451069;28;1885;-69
2023/07/23 20:29:26;;;;;;;;;;;;;;;23.49;46.54;95327.78;10458461;28;1803;-69
2023/07/23 20:34:27;;;;;;;;;;;;;;;23.45;46.46;95338.97;10469175;28;1855;-70
2023/07/23 20:39:27;;;;;;;;;;;;;;;23.41;46.03;95332.72;10456082;28;4536;-69
2023/07/23 20:44:27;;;;;;;;;;;;;;;23.36;46.39;95334.69;10451735;28;1890;-69
2023/07/23 20:49:27;;;;;;;;;;;;;;;23.28;46.22;95330.91;10460262;28;1838;-69
2023/07/23 20:54:28;;;;;;;;;;;;;;;23.28;45.91;95327.47;10443490;28;1918;-72
2023/07/23 20:59:28;;;;;;;;;;;;;;;23.19;45.79;95323.97;10450340;28;1910;-71
2023/07/23 21:04:28;;;;;;;;;;;;;;;23.14;45.71;95318.81;10450635;28;1841;-69
2023/07/23 21:09:28;;;;;;;;;;;;;;;23.08;44.59;95320.00;10447924;28;1924;-71
2023/07/23 21:14:29;;;;;;;;;;;;;;;23.10;45.11;95313.31;10445983;28;2359;-71
2023/07/23 21:19:29;;;;;;;;;;;;;;;23.07;44.74;95310.50;10445497;28;1918;-71
2023/07/23 21:24:30;;;;;;;;;;;;;;;23.03;44.57;95302.38;10448579;28;1861;-71
2023/07/23 21:29:30;;;;;;;;;;;;;;;22.99;44.85;95309.34;10449134;28;1874;-70
2023/07/23 21:34:30;;;;;;;;;;;;;;;23.00;44.60;95302.97;10443643;28;1909;-72
2023/07/23 21:39:30;;;;;;;;;;;;;;;22.98;44.42;95302.50;10471854;28;4518;-72
2023/07/23 21:44:31;;;;;;;;;;;;;;;22.95;43.85;95300.47;10444620;28;1938;-71
2023/07/23 21:49:31;;;;;;;;;;;;;;;22.93;44.72;95291.25;10449414;28;1853;-71
2023/07/23 21:54:32;;;;;;;;;;;;;;;22.89;44.47;95288.44;10441832;28;1944;-71
2023/07/23 21:59:32;;;;;;;;;;;;;;;22.91;44.20;95282.84;10448139;28;1979;-71
2023/07/23 22:04:32;;;;;;;;;;;;;;;22.93;45.18;95288.63;10441280;28;1901;-71
2023/07/23 22:09:33;;;;;;;;;;;;;;;22.94;45.43;95287.53;10441974;28;2742;-72
2023/07/23 22:14:33;;;;;;;;;;;;;;;22.94;45.84;95283.03;10446593;28;1830;-72
2023/07/23 22:19:33;;;;;;;;;;;;;;;22.94;45.81;95279.59;10447471;28;1910;-72
2023/07/23 22:24:34;;;;;;;;;;;;;;;22.93;46.06;95283.34;10442271;28;1827;-73
2023/07/23 22:29:34;;;;;;;;;;;;;;;22.96;46.50;95270.28;10452011;28;1913;-72
2023/07/23 22:34:34;;;;;;;;;;;;;;;22.94;46.64;95269.03;10437443;28;2114;-72
2023/07/23 22:39:35;;;;;;;;;;;;;;;22.92;47.06;95247.41;10444834;28;4530;-72
2023/07/23 22:44:35;;;;;;;;;;;;;;;22.89;46.86;95250.66;10445774;28;2010;-74
2023/07/23 22:49:35;;;;;;;;;;;;;;;22.89;47.15;95240.09;10448051;28;1873;-71
2023/07/23 22:54:36;;;;;;;;;;;;;;;22.81;47.72;95238.94;10442167;28;1994;-73
2023/07/23 22:59:36;;;;;;;;;;;;;;;22.81;47.91;95228.38;10437483;28;2023;-71
2023/07/23 23:04:36;;;;;;;;;;;;;;;22.79;47.94;95217.34;10443621;28;2342;-73
2023/07/23 23:09:36;;;;;;;;;;;;;;;22.78;48.36;95201.75;10453244;28;1885;-72
2023/07/23 23:14:37;;;;;;;;;;;;;;;22.74;47.92;95192.88;10461762;28;1866;-72
2023/07/23 23:19:37;;;;;;;;;;;;;;;22.69;48.41;95198.28;10452028;28;1914;-72
2023/07/23 23:24:37;;;;;;;;;;;;;;;22.68;48.26;95186.94;10481165;28;1934;-72
2023/07/23 23:29:38;;;;;;;;;;;;;;;22.67;48.79;95188.78;10453925;28;1872;-71
2023/07/23 23:34:38;;;;;;;;;;;;;;;22.69;49.13;95177.16;10452013;28;1878;-74
2023/07/23 23:39:38;;;;;;;;;;;;;;;22.73;48.20;95170.19;10452679;28;4514;-72
2023/07/23 23:44:39;;;;;;;;;;;;;;;22.72;48.32;95165.97;10445067;28;1827;-72
2023/07/23 23:49:40;;;;;;;;;;;;;;;22.67;48.21;95154.44;10452830;28;1853;-73
2023/07/23 23:54:40;;;;;;;;;;;;;;;22.61;48.49;95152.22;10444186;28;2022;-72
2023/07/23 23:59:40;;;;;;;;;;;;;;;22.61;48.38;95139.00;10444538;28;2082;-73
